sensor_id;sensor_type;location;lat;lon;timestamp;temperature;humidity
7413;DHT22;3748;48.136;11.538;2023-02-15T00:01:17;0.50;99.90
7413;DHT22;3748;48.136;11.538;2023-02-15T00:03:44;0.20;99.90
7413;DHT22;3748;48.136;11.538;2023-02-15T00:11:23;0.30;99.90
7413;DHT22;3748;48.136;11.538;2023-02-15T00:24:47;0.40;99.90
7413;DHT22;3748;48.136;11.538;2023-02-15T00:27:15;-0.10;99.90
7413;DHT22;3748;48.136;11.538;2023-02-15T00:29:42;0.00;99.90
7413;DHT22;3748;48.136;11.538;2023-02-15T00:32:09;0.20;99.90
7413;DHT22;3748;48.136;11.538;2023-02-15T00:34:36;0.20;99.90
7413;DHT22;3748;48.136;11.538;2023-02-15T00:37:03;0.50;99.90
7413;DHT22;3748;48.136;11.538;2023-02-15T00:39:30;0.60;99.90
7413;DHT22;3748;48.136;11.538;2023-02-15T00:47:09;0.20;99.90
7413;DHT22;3748;48.136;11.538;2023-02-15T00:49:36;0.10;99.90
7413;DHT22;3748;48.136;11.538;2023-02-15T00:52:03;-0.10;99.90
7413;DHT22;3748;48.136;11.538;2023-02-15T01:02:18;0.30;99.90
7413;DHT22;3748;48.136;11.538;2023-02-15T02:13:29;-0.30;99.90
7413;DHT22;3748;48.136;11.538;2023-02-15T02:16:02;-0.30;99.90
7413;DHT22;3748;48.136;11.538;2023-02-15T02:18:39;-0.30;99.90
7413;DHT22;3748;48.136;11.538;2023-02-15T02:21:29;-0.30;99.90
7413;DHT22;3748;48.136;11.538;2023-02-15T02:27:11;0.00;99.90
7413;DHT22;3748;48.136;11.538;2023-02-15T02:33:11;-1.30;99.90
7413;DHT22;3748;48.136;11.538;2023-02-15T02:35:48;-1.10;99.90
7413;DHT22;3748;48.136;11.538;2023-02-15T02:38:25;-1.00;99.90
7413;DHT22;3748;48.136;11.538;2023-02-15T02:40:59;-0.80;99.90
7413;DHT22;3748;48.136;11.538;2023-02-15T02:43:33;-0.70;99.90
7413;DHT22;3748;48.136;11.538;2023-02-15T02:46:06;-0.80;99.90
7413;DHT22;3748;48.136;11.538;2023-02-15T02:48:36;-0.60;99.90
7413;DHT22;3748;48.136;11.538;2023-02-15T02:51:03;-0.50;99.90
7413;DHT22;3748;48.136;11.538;2023-02-15T02:53:31;-0.80;99.90
7413;DHT22;3748;48.136;11.538;2023-02-15T02:56:03;-1.00;99.90
7413;DHT22;3748;48.136;11.538;2023-02-15T02:58:37;-1.10;99.90
7413;DHT22;3748;48.136;11.538;2023-02-15T03:01:11;-1.30;99.90
7413;DHT22;3748;48.136;11.538;2023-02-15T03:03:42;-1.30;99.90
7413;DHT22;3748;48.136;11.538;2023-02-15T03:06:12;-1.40;99.90
7413;DHT22;3748;48.136;11.538;2023-02-15T03:08:47;-1.40;99.90
7413;DHT22;3748;48.136;11.538;2023-02-15T03:11:15;-1.60;99.90
7413;DHT22;3748;48.136;11.538;2023-02-15T03:13:43;-1.50;99.90
7413;DHT22;3748;48.136;11.538;2023-02-15T03:16:12;-1.50;99.90
7413;DHT22;3748;48.136;11.538;2023-02-15T03:18:56;-1.60;99.90
7413;DHT22;3748;48.136;11.538;2023-02-15T03:21:31;-1.50;99.90
7413;DHT22;3748;48.136;11.538;2023-02-15T03:24:02;-1.40;99.90
7413;DHT22;3748;48.136;11.538;2023-02-15T03:26:32;-1.30;99.90
7413;DHT22;3748;48.136;11.538;2023-02-15T03:29:00;-1.50;99.90
7413;DHT22;3748;48.136;11.538;2023-02-15T03:31:31;-1.50;99.90
7413;DHT22;3748;48.136;11.538;2023-02-15T03:34:02;-1.60;99.90
7413;DHT22;3748;48.136;11.538;2023-02-15T03:36:34;-1.60;99.90
7413;DHT22;3748;48.136;11.538;2023-02-15T03:39:10;-1.60;99.90
7413;DHT22;3748;48.136;11.538;2023-02-15T03:41:42;-1.90;99.90
7413;DHT22;3748;48.136;11.538;2023-02-15T03:44:16;-1.70;99.90
7413;DHT22;3748;48.136;11.538;2023-02-15T03:46:48;-1.50;99.90
7413;DHT22;3748;48.136;11.538;2023-02-15T03:49:22;-1.50;99.90
7413;DHT22;3748;48.136;11.538;2023-02-15T03:51:52;-1.40;99.90
7413;DHT22;3748;48.136;11.538;2023-02-15T03:54:23;-1.10;99.90
7413;DHT22;3748;48.136;11.538;2023-02-15T03:57:11;-1.20;99.90
7413;DHT22;3748;48.136;11.538;2023-02-15T03:59:56;-1.50;99.90
7413;DHT22;3748;48.136;11.538;2023-02-15T04:02:44;-1.50;99.90
7413;DHT22;3748;48.136;11.538;2023-02-15T04:05:16;-1.40;99.90
7413;DHT22;3748;48.136;11.538;2023-02-15T04:07:42;-1.10;99.90
7413;DHT22;3748;48.136;11.538;2023-02-15T04:10:10;-1.00;99.90
7413;DHT22;3748;48.136;11.538;2023-02-15T04:12:54;-1.00;99.90
7413;DHT22;3748;48.136;11.538;2023-02-15T04:15:20;-1.10;99.90
7413;DHT22;3748;48.136;11.538;2023-02-15T04:18:05;-0.90;99.90
7413;DHT22;3748;48.136;11.538;2023-02-15T04:20:33;-1.30;99.90
7413;DHT22;3748;48.136;11.538;2023-02-15T04:23:17;-1.40;99.90
7413;DHT22;3748;48.136;11.538;2023-02-15T04:26:03;-1.50;99.90
7413;DHT22;3748;48.136;11.538;2023-02-15T04:28:30;-1.60;99.90
7413;DHT22;3748;48.136;11.538;2023-02-15T04:30:57;-1.60;99.90
7413;DHT22;3748;48.136;11.538;2023-02-15T04:33:23;-1.60;99.90
7413;DHT22;3748;48.136;11.538;2023-02-15T04:35:52;-1.60;99.90
7413;DHT22;3748;48.136;11.538;2023-02-15T04:38:18;-1.60;99.90
7413;DHT22;3748;48.136;11.538;2023-02-15T04:40:49;-1.60;99.90
7413;DHT22;3748;48.136;11.538;2023-02-15T04:43:16;-1.50;99.90
7413;DHT22;3748;48.136;11.538;2023-02-15T04:45:47;-1.40;99.90
7413;DHT22;3748;48.136;11.538;2023-02-15T04:48:14;-1.70;99.90
7413;DHT22;3748;48.136;11.538;2023-02-15T04:50:41;-1.50;99.90
7413;DHT22;3748;48.136;11.538;2023-02-15T04:53:10;-1.60;99.90
7413;DHT22;3748;48.136;11.538;2023-02-15T04:55:36;-1.50;99.90
7413;DHT22;3748;48.136;11.538;2023-02-15T04:58:03;-1.40;99.90
7413;DHT22;3748;48.136;11.538;2023-02-15T05:00:30;-1.30;99.90
7413;DHT22;3748;48.136;11.538;2023-02-15T05:02:57;-1.20;99.90
7413;DHT22;3748;48.136;11.538;2023-02-15T05:05:23;-1.10;99.90
7413;DHT22;3748;48.136;11.538;2023-02-15T05:07:50;-1.00;99.90
7413;DHT22;3748;48.136;11.538;2023-02-15T05:10:19;-1.00;99.90
7413;DHT22;3748;48.136;11.538;2023-02-15T05:15:18;-1.50;99.90
7413;DHT22;3748;48.136;11.538;2023-02-15T05:17:44;-1.50;99.90
7413;DHT22;3748;48.136;11.538;2023-02-15T05:20:11;-1.60;99.90
7413;DHT22;3748;48.136;11.538;2023-02-15T05:22:38;-1.80;99.90
7413;DHT22;3748;48.136;11.538;2023-02-15T05:25:06;-2.00;99.90
7413;DHT22;3748;48.136;11.538;2023-02-15T05:27:52;-1.80;99.90
7413;DHT22;3748;48.136;11.538;2023-02-15T05:30:36;-1.80;99.90
7413;DHT22;3748;48.136;11.538;2023-02-15T05:33:05;-2.00;99.90
7413;DHT22;3748;48.136;11.538;2023-02-15T05:35:32;-1.90;99.90
7413;DHT22;3748;48.136;11.538;2023-02-15T05:37:59;-2.00;99.90
7413;DHT22;3748;48.136;11.538;2023-02-15T05:40:26;-2.20;99.90
7413;DHT22;3748;48.136;11.538;2023-02-15T05:42:54;-1.80;99.90
7413;DHT22;3748;48.136;11.538;2023-02-15T05:45:20;-1.90;99.90
7413;DHT22;3748;48.136;11.538;2023-02-15T05:47:47;-1.80;99.90
7413;DHT22;3748;48.136;11.538;2023-02-15T05:50:14;-1.70;99.90
7413;DHT22;3748;48.136;11.538;2023-02-15T05:52:41;-2.00;99.90
7413;DHT22;3748;48.136;11.538;2023-02-15T05:55:08;-1.90;99.90
7413;DHT22;3748;48.136;11.538;2023-02-15T05:57:35;-1.60;99.90
7413;DHT22;3748;48.136;11.538;2023-02-15T06:00:04;-1.70;99.90
7413;DHT22;3748;48.136;11.538;2023-02-15T06:02:33;-1.80;99.90
7413;DHT22;3748;48.136;11.538;2023-02-15T06:05:00;-1.90;99.90
7413;DHT22;3748;48.136;11.538;2023-02-15T06:07:27;-2.00;99.90
7413;DHT22;3748;48.136;11.538;2023-02-15T06:09:54;-1.90;99.90
7413;DHT22;3748;48.136;11.538;2023-02-15T06:12:20;-1.90;99.90
7413;DHT22;3748;48.136;11.538;2023-02-15T06:14:47;-1.80;99.90
7413;DHT22;3748;48.136;11.538;2023-02-15T06:17:16;-1.80;99.90
7413;DHT22;3748;48.136;11.538;2023-02-15T06:19:43;-1.90;99.90
7413;DHT22;3748;48.136;11.538;2023-02-15T06:22:10;-2.30;99.90
7413;DHT22;3748;48.136;11.538;2023-02-15T06:24:39;-2.10;99.90
7413;DHT22;3748;48.136;11.538;2023-02-15T06:27:07;-2.10;99.90
7413;DHT22;3748;48.136;11.538;2023-02-15T06:29:34;-2.20;99.90
7413;DHT22;3748;48.136;11.538;2023-02-15T06:32:01;-2.30;99.90
7413;DHT22;3748;48.136;11.538;2023-02-15T06:34:31;-2.10;99.90
7413;DHT22;3748;48.136;11.538;2023-02-15T06:36:58;-2.10;99.90
7413;DHT22;3748;48.136;11.538;2023-02-15T06:39:25;-2.10;99.90
7413;DHT22;3748;48.136;11.538;2023-02-15T06:41:52;-2.10;99.90
7413;DHT22;3748;48.136;11.538;2023-02-15T06:44:19;-2.00;99.90
7413;DHT22;3748;48.136;11.538;2023-02-15T06:46:45;-2.10;99.90
7413;DHT22;3748;48.136;11.538;2023-02-15T06:49:12;-2.00;99.90
7413;DHT22;3748;48.136;11.538;2023-02-15T06:51:40;-2.00;99.90
7413;DHT22;3748;48.136;11.538;2023-02-15T06:54:07;-2.00;99.90
7413;DHT22;3748;48.136;11.538;2023-02-15T06:56:34;-2.00;99.90
7413;DHT22;3748;48.136;11.538;2023-02-15T06:59:01;-2.10;99.90
7413;DHT22;3748;48.136;11.538;2023-02-15T07:01:28;-2.00;99.90
7413;DHT22;3748;48.136;11.538;2023-02-15T07:03:54;-2.00;99.90
7413;DHT22;3748;48.136;11.538;2023-02-15T07:06:21;-1.70;99.90
7413;DHT22;3748;48.136;11.538;2023-02-15T07:08:50;-1.60;99.90
7413;DHT22;3748;48.136;11.538;2023-02-15T07:11:16;-1.80;99.90
7413;DHT22;3748;48.136;11.538;2023-02-15T07:14:00;-1.70;99.90
7413;DHT22;3748;48.136;11.538;2023-02-15T07:16:27;-1.60;99.90
7413;DHT22;3748;48.136;11.538;2023-02-15T07:18:54;-1.70;99.90
7413;DHT22;3748;48.136;11.538;2023-02-15T07:21:21;-1.80;99.90
7413;DHT22;3748;48.136;11.538;2023-02-15T07:23:49;-1.70;99.90
7413;DHT22;3748;48.136;11.538;2023-02-15T07:26:16;-1.60;99.90
7413;DHT22;3748;48.136;11.538;2023-02-15T07:28:43;-1.80;99.90
7413;DHT22;3748;48.136;11.538;2023-02-15T07:31:10;-1.40;99.90
7413;DHT22;3748;48.136;11.538;2023-02-15T07:33:36;-1.10;99.90
7413;DHT22;3748;48.136;11.538;2023-02-15T07:36:04;-1.00;99.90
7413;DHT22;3748;48.136;11.538;2023-02-15T07:38:33;-0.80;99.90
7413;DHT22;3748;48.136;11.538;2023-02-15T07:41:03;-0.70;99.90
7413;DHT22;3748;48.136;11.538;2023-02-15T07:43:33;-0.60;99.90
7413;DHT22;3748;48.136;11.538;2023-02-15T07:46:00;-0.50;99.90
7413;DHT22;3748;48.136;11.538;2023-02-15T07:48:27;-0.40;99.90
7413;DHT22;3748;48.136;11.538;2023-02-15T07:50:58;0.10;99.90
7413;DHT22;3748;48.136;11.538;2023-02-15T07:53:25;0.00;99.90
7413;DHT22;3748;48.136;11.538;2023-02-15T07:55:52;0.20;99.90
7413;DHT22;3748;48.136;11.538;2023-02-15T07:58:20;0.20;99.90
7413;DHT22;3748;48.136;11.538;2023-02-15T08:01:07;0.30;99.90
7413;DHT22;3748;48.136;11.538;2023-02-15T08:03:34;0.30;99.90
7413;DHT22;3748;48.136;11.538;2023-02-15T08:06:01;0.40;99.90
7413;DHT22;3748;48.136;11.538;2023-02-15T08:08:28;0.50;99.90
7413;DHT22;3748;48.136;11.538;2023-02-15T08:10:59;0.50;99.90
7413;DHT22;3748;48.136;11.538;2023-02-15T08:13:46;-0.20;99.90
7413;DHT22;3748;48.136;11.538;2023-02-15T08:16:20;-1.10;99.90
7413;DHT22;3748;48.136;11.538;2023-02-15T08:18:47;-1.10;99.90
7413;DHT22;3748;48.136;11.538;2023-02-15T08:21:14;-0.80;99.90
7413;DHT22;3748;48.136;11.538;2023-02-15T08:23:41;-0.90;99.90
7413;DHT22;3748;48.136;11.538;2023-02-15T08:26:08;-0.70;99.90
7413;DHT22;3748;48.136;11.538;2023-02-15T08:28:35;-0.80;99.90
7413;DHT22;3748;48.136;11.538;2023-02-15T08:31:07;-1.10;99.90
7413;DHT22;3748;48.136;11.538;2023-02-15T08:33:36;-1.10;99.90
7413;DHT22;3748;48.136;11.538;2023-02-15T08:36:03;-1.40;99.90
7413;DHT22;3748;48.136;11.538;2023-02-15T08:38:31;-1.10;99.90
7413;DHT22;3748;48.136;11.538;2023-02-15T08:40:58;-0.70;99.90
7413;DHT22;3748;48.136;11.538;2023-02-15T08:43:34;-0.70;99.90
7413;DHT22;3748;48.136;11.538;2023-02-15T08:46:01;-0.90;99.90
7413;DHT22;3748;48.136;11.538;2023-02-15T08:48:29;-0.90;99.90
7413;DHT22;3748;48.136;11.538;2023-02-15T08:50:56;-1.00;99.90
7413;DHT22;3748;48.136;11.538;2023-02-15T08:53:23;-0.70;99.90
7413;DHT22;3748;48.136;11.538;2023-02-15T08:55:55;-0.10;99.90
7413;DHT22;3748;48.136;11.538;2023-02-15T08:58:22;0.30;99.90
7413;DHT22;3748;48.136;11.538;2023-02-15T09:00:49;0.40;99.90
7413;DHT22;3748;48.136;11.538;2023-02-15T09:03:16;0.40;99.90
7413;DHT22;3748;48.136;11.538;2023-02-15T09:05:44;0.40;99.90
7413;DHT22;3748;48.136;11.538;2023-02-15T09:08:11;0.40;99.90
7413;DHT22;3748;48.136;11.538;2023-02-15T09:10:38;1.20;99.90
7413;DHT22;3748;48.136;11.538;2023-02-15T09:13:04;1.50;99.90
7413;DHT22;3748;48.136;11.538;2023-02-15T09:15:31;2.20;99.90
7413;DHT22;3748;48.136;11.538;2023-02-15T09:17:58;3.70;99.90
7413;DHT22;3748;48.136;11.538;2023-02-15T09:20:29;4.90;99.90
7413;DHT22;3748;48.136;11.538;2023-02-15T09:22:58;3.70;99.90
7413;DHT22;3748;48.136;11.538;2023-02-15T09:25:25;3.00;99.90
7413;DHT22;3748;48.136;11.538;2023-02-15T09:27:58;2.90;99.90
7413;DHT22;3748;48.136;11.538;2023-02-15T09:30:27;2.80;99.90
7413;DHT22;3748;48.136;11.538;2023-02-15T09:32:54;3.10;99.90
7413;DHT22;3748;48.136;11.538;2023-02-15T09:35:20;2.60;99.90
7413;DHT22;3748;48.136;11.538;2023-02-15T09:37:47;3.10;99.90
7413;DHT22;3748;48.136;11.538;2023-02-15T09:40:16;3.90;99.90
7413;DHT22;3748;48.136;11.538;2023-02-15T09:42:52;3.70;99.90
7413;DHT22;3748;48.136;11.538;2023-02-15T09:45:26;4.10;99.90
7413;DHT22;3748;48.136;11.538;2023-02-15T09:48:12;5.20;99.90
7413;DHT22;3748;48.136;11.538;2023-02-15T09:50:49;7.20;99.90
7413;DHT22;3748;48.136;11.538;2023-02-15T09:53:35;8.00;99.90
7413;DHT22;3748;48.136;11.538;2023-02-15T09:56:14;6.60;99.90
7413;DHT22;3748;48.136;11.538;2023-02-15T09:58:48;5.00;99.90
7413;DHT22;3748;48.136;11.538;2023-02-15T10:01:26;5.20;99.90
7413;DHT22;3748;48.136;11.538;2023-02-15T10:04:14;6.40;99.90
7413;DHT22;3748;48.136;11.538;2023-02-15T10:06:49;7.00;99.90
7413;DHT22;3748;48.136;11.538;2023-02-15T10:09:36;9.20;99.90
7413;DHT22;3748;48.136;11.538;2023-02-15T10:12:23;9.70;99.90
7413;DHT22;3748;48.136;11.538;2023-02-15T10:15:16;9.00;99.90
7413;DHT22;3748;48.136;11.538;2023-02-15T10:17:59;11.10;99.90
7413;DHT22;3748;48.136;11.538;2023-02-15T10:20:36;12.20;99.90
7413;DHT22;3748;48.136;11.538;2023-02-15T10:23:18;11.70;99.90
7413;DHT22;3748;48.136;11.538;2023-02-15T10:25:53;9.50;99.90
7413;DHT22;3748;48.136;11.538;2023-02-15T10:28:26;8.50;99.90
7413;DHT22;3748;48.136;11.538;2023-02-15T10:30:59;9.10;99.90
7413;DHT22;3748;48.136;11.538;2023-02-15T10:33:38;8.10;99.90
7413;DHT22;3748;48.136;11.538;2023-02-15T10:36:18;9.90;99.90
7413;DHT22;3748;48.136;11.538;2023-02-15T10:38:53;11.40;99.90
7413;DHT22;3748;48.136;11.538;2023-02-15T10:41:32;10.10;99.90
7413;DHT22;3748;48.136;11.538;2023-02-15T10:44:15;9.30;99.90
7413;DHT22;3748;48.136;11.538;2023-02-15T10:47:13;8.10;99.90
7413;DHT22;3748;48.136;11.538;2023-02-15T10:50:01;6.80;99.90
7413;DHT22;3748;48.136;11.538;2023-02-15T10:52:39;7.00;99.90
7413;DHT22;3748;48.136;11.538;2023-02-15T10:55:14;6.70;99.90
7413;DHT22;3748;48.136;11.538;2023-02-15T10:57:54;6.60;99.90
7413;DHT22;3748;48.136;11.538;2023-02-15T11:00:29;7.30;99.90
7413;DHT22;3748;48.136;11.538;2023-02-15T11:03:17;8.00;99.90
7413;DHT22;3748;48.136;11.538;2023-02-15T11:05:58;7.30;99.90
7413;DHT22;3748;48.136;11.538;2023-02-15T11:08:27;9.80;99.90
7413;DHT22;3748;48.136;11.538;2023-02-15T11:10:59;11.90;99.90
7413;DHT22;3748;48.136;11.538;2023-02-15T11:13:32;14.10;99.90
7413;DHT22;3748;48.136;11.538;2023-02-15T11:16:04;12.50;99.90
7413;DHT22;3748;48.136;11.538;2023-02-15T11:18:34;13.80;99.90
7413;DHT22;3748;48.136;11.538;2023-02-15T11:21:06;10.90;99.90
7413;DHT22;3748;48.136;11.538;2023-02-15T11:23:35;12.50;99.90
7413;DHT22;3748;48.136;11.538;2023-02-15T11:26:12;13.70;99.90
7413;DHT22;3748;48.136;11.538;2023-02-15T11:28:44;15.60;99.90
7413;DHT22;3748;48.136;11.538;2023-02-15T11:31:16;16.60;99.90
7413;DHT22;3748;48.136;11.538;2023-02-15T11:33:46;16.20;99.90
7413;DHT22;3748;48.136;11.538;2023-02-15T11:36:17;17.20;99.90
7413;DHT22;3748;48.136;11.538;2023-02-15T11:38:46;17.80;99.90
7413;DHT22;3748;48.136;11.538;2023-02-15T11:41:19;17.50;99.90
7413;DHT22;3748;48.136;11.538;2023-02-15T11:43:53;16.00;99.90
7413;DHT22;3748;48.136;11.538;2023-02-15T11:46:22;17.00;99.90
7413;DHT22;3748;48.136;11.538;2023-02-15T11:48:49;17.50;99.90
7413;DHT22;3748;48.136;11.538;2023-02-15T11:51:17;16.00;99.90
7413;DHT22;3748;48.136;11.538;2023-02-15T11:53:45;16.30;99.90
7413;DHT22;3748;48.136;11.538;2023-02-15T11:56:14;15.50;99.90
7413;DHT22;3748;48.136;11.538;2023-02-15T11:58:45;15.70;99.90
7413;DHT22;3748;48.136;11.538;2023-02-15T12:01:28;16.10;99.90
7413;DHT22;3748;48.136;11.538;2023-02-15T12:03:59;16.90;99.90
7413;DHT22;3748;48.136;11.538;2023-02-15T12:06:30;16.50;99.90
7413;DHT22;3748;48.136;11.538;2023-02-15T12:09:03;17.10;99.90
7413;DHT22;3748;48.136;11.538;2023-02-15T12:11:35;16.00;99.90
7413;DHT22;3748;48.136;11.538;2023-02-15T12:14:04;17.80;99.90
7413;DHT22;3748;48.136;11.538;2023-02-15T12:16:41;14.50;99.90
7413;DHT22;3748;48.136;11.538;2023-02-15T12:19:28;17.10;99.90
7413;DHT22;3748;48.136;11.538;2023-02-15T12:21:56;17.90;99.90
7413;DHT22;3748;48.136;11.538;2023-02-15T12:24:26;17.90;99.90
7413;DHT22;3748;48.136;11.538;2023-02-15T12:27:00;19.10;99.90
7413;DHT22;3748;48.136;11.538;2023-02-15T12:29:28;16.10;99.90
7413;DHT22;3748;48.136;11.538;2023-02-15T12:31:58;16.90;99.90
7413;DHT22;3748;48.136;11.538;2023-02-15T12:34:36;18.60;99.90
7413;DHT22;3748;48.136;11.538;2023-02-15T12:37:10;19.80;99.90
7413;DHT22;3748;48.136;11.538;2023-02-15T12:39:51;21.10;99.90
7413;DHT22;3748;48.136;11.538;2023-02-15T12:42:18;19.20;99.90
7413;DHT22;3748;48.136;11.538;2023-02-15T12:45:00;18.80;99.90
7413;DHT22;3748;48.136;11.538;2023-02-15T12:47:29;21.00;99.90
7413;DHT22;3748;48.136;11.538;2023-02-15T12:50:13;20.50;99.90
7413;DHT22;3748;48.136;11.538;2023-02-15T12:52:44;20.90;99.90
7413;DHT22;3748;48.136;11.538;2023-02-15T12:55:20;21.10;99.90
7413;DHT22;3748;48.136;11.538;2023-02-15T12:57:48;19.90;99.90
7413;DHT22;3748;48.136;11.538;2023-02-15T13:00:26;19.00;99.90
7413;DHT22;3748;48.136;11.538;2023-02-15T13:02:59;21.20;99.90
7413;DHT22;3748;48.136;11.538;2023-02-15T13:05:31;19.50;99.90
7413;DHT22;3748;48.136;11.538;2023-02-15T13:08:01;20.20;99.90
7413;DHT22;3748;48.136;11.538;2023-02-15T13:10:36;20.90;99.90
7413;DHT22;3748;48.136;11.538;2023-02-15T13:13:09;21.90;99.90
7413;DHT22;3748;48.136;11.538;2023-02-15T13:15:38;21.60;99.90
7413;DHT22;3748;48.136;11.538;2023-02-15T13:18:14;20.60;99.90
7413;DHT22;3748;48.136;11.538;2023-02-15T13:20:43;21.00;99.90
7413;DHT22;3748;48.136;11.538;2023-02-15T13:23:22;19.00;99.90
7413;DHT22;3748;48.136;11.538;2023-02-15T13:25:51;18.20;99.90
7413;DHT22;3748;48.136;11.538;2023-02-15T13:28:20;20.60;99.90
7413;DHT22;3748;48.136;11.538;2023-02-15T13:30:49;22.30;99.90
7413;DHT22;3748;48.136;11.538;2023-02-15T13:33:22;22.20;99.90
7413;DHT22;3748;48.136;11.538;2023-02-15T13:35:58;21.90;99.90
7413;DHT22;3748;48.136;11.538;2023-02-15T13:38:41;19.70;99.90
7413;DHT22;3748;48.136;11.538;2023-02-15T13:41:14;21.30;99.90
7413;DHT22;3748;48.136;11.538;2023-02-15T13:43:50;21.20;99.90
7413;DHT22;3748;48.136;11.538;2023-02-15T13:46:31;19.30;99.90
7413;DHT22;3748;48.136;11.538;2023-02-15T13:49:12;18.90;99.90
7413;DHT22;3748;48.136;11.538;2023-02-15T13:51:48;19.70;99.90
7413;DHT22;3748;48.136;11.538;2023-02-15T13:54:34;21.40;99.90
7413;DHT22;3748;48.136;11.538;2023-02-15T13:57:16;21.70;99.90
7413;DHT22;3748;48.136;11.538;2023-02-15T13:59:52;21.20;99.90
7413;DHT22;3748;48.136;11.538;2023-02-15T14:02:53;16.90;99.90
7413;DHT22;3748;48.136;11.538;2023-02-15T14:08:37;21.80;99.90
7413;DHT22;3748;48.136;11.538;2023-02-15T14:11:10;19.30;99.90
7413;DHT22;3748;48.136;11.538;2023-02-15T14:14:02;17.60;99.90
7413;DHT22;3748;48.136;11.538;2023-02-15T14:16:39;16.70;99.90
7413;DHT22;3748;48.136;11.538;2023-02-15T14:19:16;16.40;99.90
7413;DHT22;3748;48.136;11.538;2023-02-15T14:21:54;18.50;99.90
7413;DHT22;3748;48.136;11.538;2023-02-15T14:24:30;19.10;99.90
7413;DHT22;3748;48.136;11.538;2023-02-15T14:27:08;18.90;99.90
7413;DHT22;3748;48.136;11.538;2023-02-15T14:29:47;19.50;99.90
7413;DHT22;3748;48.136;11.538;2023-02-15T14:32:19;20.10;99.90
7413;DHT22;3748;48.136;11.538;2023-02-15T14:34:51;19.20;99.90
7413;DHT22;3748;48.136;11.538;2023-02-15T14:37:27;18.50;99.90
7413;DHT22;3748;48.136;11.538;2023-02-15T14:40:00;18.10;99.90
7413;DHT22;3748;48.136;11.538;2023-02-15T14:42:51;17.70;99.90
7413;DHT22;3748;48.136;11.538;2023-02-15T14:45:26;17.40;99.90
7413;DHT22;3748;48.136;11.538;2023-02-15T14:48:02;18.20;99.90
7413;DHT22;3748;48.136;11.538;2023-02-15T14:50:45;19.10;99.90
7413;DHT22;3748;48.136;11.538;2023-02-15T14:56:22;18.10;99.90
7413;DHT22;3748;48.136;11.538;2023-02-15T14:59:16;17.20;99.90
7413;DHT22;3748;48.136;11.538;2023-02-15T15:01:57;15.10;99.90
7413;DHT22;3748;48.136;11.538;2023-02-15T15:04:29;14.30;99.90
7413;DHT22;3748;48.136;11.538;2023-02-15T15:07:02;14.20;99.90
7413;DHT22;3748;48.136;11.538;2023-02-15T15:09:34;13.80;99.90
7413;DHT22;3748;48.136;11.538;2023-02-15T15:12:37;12.70;99.90
7413;DHT22;3748;48.136;11.538;2023-02-15T15:22:51;10.10;99.90
7413;DHT22;3748;48.136;11.538;2023-02-15T15:25:44;9.80;99.90
7413;DHT22;3748;48.136;11.538;2023-02-15T15:31:18;10.00;99.90
7413;DHT22;3748;48.136;11.538;2023-02-15T16:43:53;6.50;99.90
7413;DHT22;3748;48.136;11.538;2023-02-15T16:46:24;6.40;99.90
7413;DHT22;3748;48.136;11.538;2023-02-15T16:59:06;5.90;99.90
7413;DHT22;3748;48.136;11.538;2023-02-15T19:07:54;2.50;99.90
7413;DHT22;3748;48.136;11.538;2023-02-15T19:10:23;2.40;99.90
7413;DHT22;3748;48.136;11.538;2023-02-15T19:12:50;2.50;99.90
7413;DHT22;3748;48.136;11.538;2023-02-15T19:15:20;2.20;99.90
7413;DHT22;3748;48.136;11.538;2023-02-15T19:17:47;2.40;99.90
7413;DHT22;3748;48.136;11.538;2023-02-15T19:20:16;2.50;99.90
7413;DHT22;3748;48.136;11.538;2023-02-15T19:22:44;2.70;99.90
7413;DHT22;3748;48.136;11.538;2023-02-15T19:25:17;2.60;99.90
7413;DHT22;3748;48.136;11.538;2023-02-15T19:27:45;2.30;99.90
7413;DHT22;3748;48.136;11.538;2023-02-15T19:30:14;2.60;99.90
7413;DHT22;3748;48.136;11.538;2023-02-15T19:32:42;2.10;99.90
7413;DHT22;3748;48.136;11.538;2023-02-15T19:35:13;1.80;99.90
7413;DHT22;3748;48.136;11.538;2023-02-15T19:40:22;1.50;99.90
7413;DHT22;3748;48.136;11.538;2023-02-15T19:42:49;1.40;99.90
7413;DHT22;3748;48.136;11.538;2023-02-15T19:45:18;1.30;99.90
7413;DHT22;3748;48.136;11.538;2023-02-15T19:47:45;1.20;99.90
7413;DHT22;3748;48.136;11.538;2023-02-15T19:50:14;1.20;99.90
7413;DHT22;3748;48.136;11.538;2023-02-15T19:52:41;1.30;99.90
7413;DHT22;3748;48.136;11.538;2023-02-15T19:55:17;1.40;99.90
7413;DHT22;3748;48.136;11.538;2023-02-15T19:57:48;1.70;99.90
7413;DHT22;3748;48.136;11.538;2023-02-15T20:00:17;3.20;99.90
7413;DHT22;3748;48.136;11.538;2023-02-15T20:02:46;1.60;99.90
7413;DHT22;3748;48.136;11.538;2023-02-15T20:05:13;1.70;99.90
7413;DHT22;3748;48.136;11.538;2023-02-15T20:07:43;1.50;99.90
7413;DHT22;3748;48.136;11.538;2023-02-15T20:10:15;0.90;99.90
7413;DHT22;3748;48.136;11.538;2023-02-15T20:12:43;1.30;99.90
7413;DHT22;3748;48.136;11.538;2023-02-15T20:15:20;1.20;99.90
7413;DHT22;3748;48.136;11.538;2023-02-15T20:17:47;1.20;99.90
7413;DHT22;3748;48.136;11.538;2023-02-15T20:20:15;1.00;99.90
7413;DHT22;3748;48.136;11.538;2023-02-15T20:22:45;0.90;99.90
7413;DHT22;3748;48.136;11.538;2023-02-15T20:35:35;1.00;99.90
7413;DHT22;3748;48.136;11.538;2023-02-15T20:38:03;1.00;99.90
7413;DHT22;3748;48.136;11.538;2023-02-15T20:40:32;1.20;99.90
7413;DHT22;3748;48.136;11.538;2023-02-15T20:55:57;0.80;99.90
7413;DHT22;3748;48.136;11.538;2023-02-15T21:11:22;0.90;99.90
7413;DHT22;3748;48.136;11.538;2023-02-15T21:13:49;0.80;99.90
7413;DHT22;3748;48.136;11.538;2023-02-15T21:16:16;0.80;99.90
7413;DHT22;3748;48.136;11.538;2023-02-15T21:18:43;0.50;99.90
7413;DHT22;3748;48.136;11.538;2023-02-15T21:21:14;0.60;99.90
7413;DHT22;3748;48.136;11.538;2023-02-15T21:23:44;0.90;99.90
7413;DHT22;3748;48.136;11.538;2023-02-15T21:26:15;0.90;99.90
7413;DHT22;3748;48.136;11.538;2023-02-15T21:28:44;0.90;99.90
7413;DHT22;3748;48.136;11.538;2023-02-15T21:31:15;0.10;99.90
7413;DHT22;3748;48.136;11.538;2023-02-15T21:33:43;1.00;99.90
7413;DHT22;3748;48.136;11.538;2023-02-15T21:36:14;0.90;99.90
7413;DHT22;3748;48.136;11.538;2023-02-15T21:38:41;0.90;99.90
7413;DHT22;3748;48.136;11.538;2023-02-15T21:54:03;0.80;99.90
7413;DHT22;3748;48.136;11.538;2023-02-15T21:59:09;0.70;99.90
7413;DHT22;3748;48.136;11.538;2023-02-15T22:01:36;0.60;99.90
7413;DHT22;3748;48.136;11.538;2023-02-15T22:06:39;0.60;99.90
7413;DHT22;3748;48.136;11.538;2023-02-15T22:09:14;1.50;99.90
7413;DHT22;3748;48.136;11.538;2023-02-15T22:11:41;0.50;99.90
7413;DHT22;3748;48.136;11.538;2023-02-15T22:17:02;0.60;99.90
7413;DHT22;3748;48.136;11.538;2023-02-15T22:19:29;0.40;99.90
7413;DHT22;3748;48.136;11.538;2023-02-15T22:21:56;0.40;99.90
7413;DHT22;3748;48.136;11.538;2023-02-15T22:24:24;-0.10;99.90
7413;DHT22;3748;48.136;11.538;2023-02-15T22:26:51;0.20;99.90
7413;DHT22;3748;48.136;11.538;2023-02-15T22:31:51;0.20;99.90
7413;DHT22;3748;48.136;11.538;2023-02-15T22:42:01;0.10;99.90
7413;DHT22;3748;48.136;11.538;2023-02-15T22:47:04;0.10;99.90
7413;DHT22;3748;48.136;11.538;2023-02-15T22:49:31;0.10;99.90
7413;DHT22;3748;48.136;11.538;2023-02-15T22:51:58;-0.20;99.90
7413;DHT22;3748;48.136;11.538;2023-02-15T22:54:25;0.10;99.90
7413;DHT22;3748;48.136;11.538;2023-02-15T22:56:52;0.20;99.90
7413;DHT22;3748;48.136;11.538;2023-02-15T22:59:23;-0.40;99.90
7413;DHT22;3748;48.136;11.538;2023-02-15T23:01:53;0.40;99.90
7413;DHT22;3748;48.136;11.538;2023-02-15T23:04:22;0.50;99.90